Time;durP1;ratioP1;P1;durP2;ratioP2;P2;SDS_P1;SDS_P2;PMS_P1;PMS_P2;Temp;Humidity;BMP_temperature;BMP_pressure;BME280_temperature;BME280_humidity;BME280_pressure;Samples;Min_cycle;Max_cycle;Signal;HPM_P1;HPM_P2
2022/10/25 00:02:32;;;;;;;9.87;1.37;;;;;8.90;94214.00;;;;7395081;19;20144;-74
2022/10/25 00:05:00;;;;;;;7.17;1.60;;;;;9.10;94208.00;;;;7394185;19;20161;-74
2022/10/25 00:07:34;;;;;;;7.23;1.50;;;;;9.20;94220.00;;;;7393980;19;20160;-74
2022/10/25 00:10:04;;;;;;;7.50;1.90;;;;;9.30;94222.00;;;;7395562;19;20644;-74
2022/10/25 00:12:31;;;;;;;5.40;1.40;;;;;9.30;94215.00;;;;7394968;19;20200;-75
2022/10/25 00:15:25;;;;;;;8.00;1.67;;;;;9.50;94216.00;;;;7392533;19;20144;-76
2022/10/25 00:17:55;;;;;;;4.70;1.50;;;;;9.60;94212.00;;;;7396692;19;20145;-73
2022/10/25 00:20:31;;;;;;;7.28;1.90;;;;;9.60;94210.00;;;;7389859;19;20150;-74
2022/10/25 00:22:59;;;;;;;6.45;1.90;;;;;9.60;94214.00;;;;7394958;19;20137;-73
2022/10/25 00:25:26;;;;;;;11.20;1.73;;;;;9.80;94209.00;;;;7393808;19;20163;-74
2022/10/25 00:27:59;;;;;;;7.63;2.00;;;;;10.00;94201.00;;;;7392775;19;20599;-75
2022/10/25 00:30:27;;;;;;;5.65;2.05;;;;;10.20;94206.00;;;;7393828;19;20146;-74
2022/10/25 00:32:57;;;;;;;7.10;2.17;;;;;10.30;94198.00;;;;7394893;19;20172;-73
2022/10/25 00:35:34;;;;;;;8.40;1.70;;;;;10.20;94203.00;;;;7395625;19;20145;-74
2022/10/25 00:38:05;;;;;;;8.02;1.65;;;;;10.20;94206.00;;;;7394525;19;20162;-73
2022/10/25 00:40:32;;;;;;;6.82;1.85;;;;;10.10;94199.00;;;;7392223;19;20155;-73
2022/10/25 00:43:08;;;;;;;9.93;2.10;;;;;10.20;94200.00;;;;7393934;19;20521;-73
2022/10/25 00:45:36;;;;;;;7.60;1.65;;;;;10.10;94203.00;;;;7397000;19;20140;-73
2022/10/25 00:48:08;;;;;;;7.55;2.40;;;;;10.10;94202.00;;;;7392318;19;20156;-72
2022/10/25 00:50:49;;;;;;;5.13;1.75;;;;;10.00;94204.00;;;;7394447;19;20219;-73
2022/10/25 00:53:26;;;;;;;5.75;2.00;;;;;10.10;94199.00;;;;7393999;19;20491;-73
2022/10/25 00:56:15;;;;;;;8.10;2.07;;;;;10.10;94205.00;;;;7394707;19;20133;-73
2022/10/25 00:58:48;;;;;;;11.80;2.40;;;;;10.10;94199.00;;;;7393915;19;20484;-73
2022/10/25 01:01:29;;;;;;;4.20;2.03;;;;;10.10;94196.00;;;;7391497;19;20527;-76
2022/10/25 01:04:00;;;;;;;5.97;1.88;;;;;10.20;94194.00;;;;7395249;19;20135;-75
2022/10/25 01:06:38;;;;;;;8.57;2.07;;;;;10.10;94195.00;;;;7388182;19;20470;-75
2022/10/25 01:09:09;;;;;;;10.02;2.75;;;;;10.10;94191.00;;;;7390844;19;20294;-76
2022/10/25 01:11:48;;;;;;;8.00;1.90;;;;;10.10;94193.00;;;;7394087;19;20180;-76
2022/10/25 01:14:16;;;;;;;7.93;2.20;;;;;10.10;94195.00;;;;7392272;19;20132;-76
2022/10/25 01:16:56;;;;;;;5.20;2.00;;;;;10.10;94197.00;;;;7392285;19;20156;-77
2022/10/25 01:19:48;;;;;;;7.95;2.38;;;;;10.30;94193.00;;;;7393923;19;20133;-76
2022/10/25 01:22:23;;;;;;;7.32;2.05;;;;;10.20;94196.00;;;;7390818;19;20132;-76
2022/10/25 01:25:23;;;;;;;6.25;1.80;;;;;10.20;94200.00;;;;7395199;19;20596;-76
2022/10/25 01:28:26;;;;;;;4.53;1.80;;;;;10.20;94201.00;;;;7392651;19;20137;-76
2022/10/25 01:31:13;;;;;;;9.45;2.17;;;;;10.20;94203.00;;;;7397026;19;20596;-75
2022/10/25 01:33:53;;;;;;;5.85;2.47;;;;;10.20;94204.00;;;;7400924;19;20200;-75
2022/10/25 01:36:52;;;;;;;3.97;1.67;;;;;10.40;94210.00;;;;7396012;19;20177;-75
2022/10/25 01:39:25;;;;;;;10.37;2.10;;;;;10.30;94194.00;;;;7398667;19;20137;-76
2022/10/25 01:42:24;;;;;;;6.03;1.98;;;;;10.40;94201.00;;;;7396706;19;20169;-76
2022/10/25 01:45:26;;;;;;;14.48;2.75;;;;;10.40;94204.00;;;;7398368;19;20149;-76
2022/10/25 01:48:14;;;;;;;6.45;1.80;;;;;10.40;94201.00;;;;7398177;19;20156;-76
2022/10/25 01:50:45;;;;;;;6.55;2.15;;;;;10.60;94209.00;;;;7397285;19;20156;-76
2022/10/25 01:53:19;;;;;;;7.75;1.80;;;;;10.50;94200.00;;;;7399874;19;20137;-75
2022/10/25 01:56:06;;;;;;;8.30;1.90;;;;;10.50;94207.00;;;;7398978;19;20156;-76
2022/10/25 01:59:08;;;;;;;9.55;2.95;;;;;10.40;94201.00;;;;7396375;19;20163;-76
2022/10/25 02:02:00;;;;;;;6.90;1.52;;;;;10.50;94204.00;;;;7393422;19;20169;-76
2022/10/25 02:04:56;;;;;;;7.07;1.73;;;;;10.30;94201.00;;;;7396344;19;20176;-77
2022/10/25 02:07:32;;;;;;;8.23;1.95;;;;;10.30;94204.00;;;;7397671;19;20241;-76
2022/10/25 02:10:15;;;;;;;7.40;1.85;;;;;10.30;94204.00;;;;7396071;19;20153;-75
2022/10/25 02:13:09;;;;;;;8.63;1.92;;;;;10.30;94209.00;;;;7397565;19;20223;-76
2022/10/25 02:15:57;;;;;;;11.35;1.90;;;;;10.50;94209.00;;;;7398559;19;20226;-76
2022/10/25 02:18:28;;;;;;;6.20;1.98;;;;;10.60;94208.00;;;;7396517;19;21053;-75
2022/10/25 02:21:05;;;;;;;5.85;2.10;;;;;10.40;94206.00;;;;7396011;19;20610;-76
2022/10/25 02:23:35;;;;;;;7.47;1.80;;;;;10.40;94206.00;;;;7399631;19;20136;-76
2022/10/25 02:26:11;;;;;;;3.63;1.50;;;;;10.30;94201.00;;;;7397486;19;20132;-76
2022/10/25 02:28:43;;;;;;;8.02;2.00;;;;;10.30;94193.00;;;;7396811;19;20161;-75
2022/10/25 02:31:18;;;;;;;9.02;1.85;;;;;10.20;94192.00;;;;7396296;19;20512;-76
2022/10/25 02:33:51;;;;;;;4.57;1.45;;;;;10.10;94189.00;;;;7394784;19;20143;-76
2022/10/25 02:36:23;;;;;;;5.28;1.65;;;;;10.10;94195.00;;;;7397776;19;20137;-75
2022/10/25 02:38:54;;;;;;;4.45;1.50;;;;;10.10;94191.00;;;;7396846;19;20145;-76
2022/10/25 02:41:28;;;;;;;9.25;1.83;;;;;10.10;94184.00;;;;7398821;19;20132;-76
2022/10/25 02:43:58;;;;;;;9.70;1.77;;;;;10.10;94190.00;;;;7392158;19;20152;-76
2022/10/25 02:46:26;;;;;;;6.20;1.50;;;;;9.90;94189.00;;;;7399671;19;20133;-76
2022/10/25 02:49:00;;;;;;;3.63;1.65;;;;;9.70;94192.00;;;;7396824;19;20131;-76
2022/10/25 02:51:27;;;;;;;4.82;1.60;;;;;9.60;94196.00;;;;7397662;19;20622;-75
2022/10/25 02:53:55;;;;;;;9.95;1.50;;;;;9.60;94192.00;;;;7396160;19;20133;-74
2022/10/25 02:56:29;;;;;;;5.93;1.25;;;;;9.50;94193.00;;;;7397001;19;20905;-76
2022/10/25 02:58:57;;;;;;;5.38;1.60;;;;;9.50;94186.00;;;;7396996;19;20473;-76
2022/10/25 03:01:25;;;;;;;10.57;1.90;;;;;9.50;94190.00;;;;7393931;19;20278;-76
2022/10/25 03:03:59;;;;;;;7.13;1.85;;;;;9.40;94192.00;;;;7394224;19;20148;-76
2022/10/25 03:06:28;;;;;;;5.18;1.50;;;;;9.40;94187.00;;;;7395711;19;20146;-76
2022/10/25 03:08:56;;;;;;;4.55;1.40;;;;;9.40;94187.00;;;;7397157;19;20185;-75
2022/10/25 03:11:30;;;;;;;3.80;1.30;;;;;9.30;94186.00;;;;7398227;19;20148;-77
2022/10/25 03:13:57;;;;;;;10.68;1.75;;;;;9.40;94188.00;;;;7392958;19;20737;-75
2022/10/25 03:16:25;;;;;;;5.10;1.45;;;;;9.40;94186.00;;;;7395355;19;20671;-77
2022/10/25 03:18:59;;;;;;;8.15;1.60;;;;;9.30;94188.00;;;;7397275;19;20132;-75
2022/10/25 03:21:30;;;;;;;7.45;1.42;;;;;9.20;94192.00;;;;7394520;19;20133;-76
2022/10/25 03:23:58;;;;;;;7.30;1.88;;;;;9.20;94187.00;;;;7393741;19;20132;-76
2022/10/25 03:26:32;;;;;;;6.00;1.67;;;;;9.20;94197.00;;;;7395456;19;20621;-76
2022/10/25 03:29:06;;;;;;;6.80;1.50;;;;;9.20;94194.00;;;;7396327;19;20596;-76
2022/10/25 03:31:40;;;;;;;9.43;1.70;;;;;9.10;94186.00;;;;7394659;19;20140;-75
2022/10/25 03:34:14;;;;;;;12.73;1.92;;;;;9.10;94197.00;;;;7394579;19;20531;-75
2022/10/25 03:36:41;;;;;;;5.65;1.50;;;;;9.10;94198.00;;;;7395709;19;20121;-77
2022/10/25 03:39:15;;;;;;;8.03;1.43;;;;;9.10;94200.00;;;;7394749;19;20154;-75
2022/10/25 03:41:43;;;;;;;6.30;1.40;;;;;9.10;94202.00;;;;7395239;19;20563;-77
2022/10/25 03:44:14;;;;;;;7.80;2.15;;;;;9.00;94201.00;;;;7394412;19;20132;-76
2022/10/25 03:46:47;;;;;;;12.88;2.10;;;;;8.90;94214.00;;;;7394213;19;20148;-75
2022/10/25 03:49:15;;;;;;;12.50;2.80;;;;;8.80;94216.00;;;;7395157;19;20156;-75
2022/10/25 03:51:42;;;;;;;7.50;1.90;;;;;9.00;94214.00;;;;7396454;19;20135;-75
2022/10/25 03:54:21;;;;;;;8.43;1.88;;;;;9.00;94217.00;;;;7389866;19;20626;-75
2022/10/25 03:56:54;;;;;;;9.53;1.83;;;;;8.90;94210.00;;;;7394408;19;20205;-75
2022/10/25 03:59:28;;;;;;;6.43;1.80;;;;;9.00;94216.00;;;;7395496;19;20234;-76
2022/10/25 04:02:01;;;;;;;12.67;2.00;;;;;8.80;94216.00;;;;7387587;19;20152;-76
2022/10/25 04:04:36;;;;;;;5.37;1.90;;;;;8.70;94216.00;;;;7393528;19;20136;-75
2022/10/25 04:07:04;;;;;;;4.97;1.70;;;;;8.60;94228.00;;;;7394848;19;20144;-75
2022/10/25 04:09:31;;;;;;;2.70;1.40;;;;;8.70;94222.00;;;;7393997;19;20141;-75
2022/10/25 04:12:05;;;;;;;6.60;1.90;;;;;8.70;94219.00;;;;7394443;19;20167;-74
2022/10/25 04:14:34;;;;;;;3.60;1.63;;;;;8.70;94222.00;;;;7394419;19;20133;-76
2022/10/25 04:17:02;;;;;;;4.03;1.70;;;;;8.60;94218.00;;;;7393251;19;20158;-76
2022/10/25 04:19:36;;;;;;;8.63;1.80;;;;;8.60;94218.00;;;;7393657;19;20159;-75
2022/10/25 04:22:03;;;;;;;6.77;2.00;;;;;8.60;94213.00;;;;7394646;19;20133;-75
2022/10/25 04:24:37;;;;;;;6.43;1.70;;;;;8.60;94214.00;;;;7392540;19;20164;-75
2022/10/25 04:27:12;;;;;;;6.80;1.50;;;;;8.60;94220.00;;;;7393815;19;20144;-76
2022/10/25 04:29:39;;;;;;;5.73;1.80;;;;;8.60;94226.00;;;;7396574;19;20164;-77
2022/10/25 04:32:07;;;;;;;8.47;1.73;;;;;8.70;94216.00;;;;7393530;19;20136;-75
2022/10/25 04:34:43;;;;;;;8.63;2.00;;;;;8.60;94216.00;;;;7391524;19;20124;-75
2022/10/25 04:37:10;;;;;;;7.47;1.90;;;;;8.80;94214.00;;;;7393962;19;20651;-75
2022/10/25 04:39:38;;;;;;;3.97;1.53;;;;;8.70;94214.00;;;;7393345;19;20145;-75
2022/10/25 04:42:12;;;;;;;10.23;1.80;;;;;8.50;94209.00;;;;7392625;19;20137;-75
2022/10/25 04:44:39;;;;;;;6.70;1.73;;;;;8.60;94214.00;;;;7392614;19;20148;-76
2022/10/25 04:47:09;;;;;;;5.87;1.67;;;;;8.70;94219.00;;;;7392736;19;20161;-75
2022/10/25 04:49:43;;;;;;;9.43;1.87;;;;;8.50;94222.00;;;;7387885;19;20139;-73
2022/10/25 04:52:11;;;;;;;6.27;1.67;;;;;8.50;94212.00;;;;7391641;19;20181;-74
2022/10/25 04:54:38;;;;;;;4.27;1.73;;;;;8.40;94210.00;;;;7391113;19;20156;-73
2022/10/25 04:57:12;;;;;;;6.23;1.70;;;;;8.40;94210.00;;;;7391857;19;20152;-72
2022/10/25 04:59:40;;;;;;;3.47;1.67;;;;;8.70;94209.00;;;;7393607;19;20146;-72
2022/10/25 05:02:07;;;;;;;5.40;1.90;;;;;8.80;94212.00;;;;7388701;19;20508;-73
2022/10/25 05:04:50;;;;;;;15.27;2.30;;;;;8.80;94214.00;;;;7389818;19;20549;-73
2022/10/25 05:07:18;;;;;;;16.07;2.20;;;;;8.80;94218.00;;;;7392731;19;20227;-74
2022/10/25 05:09:52;;;;;;;6.20;2.42;;;;;8.80;94216.00;;;;7392632;19;20487;-74
2022/10/25 05:12:22;;;;;;;7.47;2.03;;;;;8.80;94229.00;;;;7390409;19;20166;-74
2022/10/25 05:14:50;;;;;;;13.15;1.90;;;;;8.80;94235.00;;;;7392140;19;20184;-73
2022/10/25 05:17:24;;;;;;;9.95;1.90;;;;;8.90;94230.00;;;;7393021;19;20588;-74
2022/10/25 05:19:52;;;;;;;8.00;2.38;;;;;8.90;94231.00;;;;7392231;19;20533;-72
2022/10/25 05:22:19;;;;;;;7.63;1.97;;;;;9.20;94231.00;;;;7391406;19;20624;-73
2022/10/25 05:24:53;;;;;;;10.70;2.25;;;;;9.20;94233.00;;;;7393381;19;20893;-74
2022/10/25 05:27:21;;;;;;;4.97;1.92;;;;;9.30;94228.00;;;;7395055;19;20162;-73
2022/10/25 05:29:49;;;;;;;7.40;2.30;;;;;9.30;94228.00;;;;7392675;19;20125;-73
2022/10/25 05:32:24;;;;;;;5.97;2.00;;;;;9.10;94231.00;;;;7390468;19;20609;-74
2022/10/25 05:34:54;;;;;;;7.47;2.05;;;;;9.00;94244.00;;;;7388815;19;20152;-74
2022/10/25 05:37:22;;;;;;;7.75;1.95;;;;;9.10;94244.00;;;;7393591;19;20150;-73
2022/10/25 05:39:56;;;;;;;4.13;2.00;;;;;9.10;94240.00;;;;7390238;19;20149;-74
2022/10/25 05:42:26;;;;;;;8.10;2.10;;;;;9.10;94237.00;;;;7388913;19;20592;-74
2022/10/25 05:44:54;;;;;;;8.52;2.00;;;;;9.20;94237.00;;;;7392180;19;20128;-73
2022/10/25 05:47:31;;;;;;;4.38;1.77;;;;;9.50;94235.00;;;;7390305;19;20148;-75
2022/10/25 05:50:00;;;;;;;3.57;1.77;;;;;9.60;94238.00;;;;7388410;19;20149;-75
2022/10/25 05:52:35;;;;;;;6.28;2.10;;;;;9.50;94238.00;;;;7388182;19;20736;-75
2022/10/25 05:55:03;;;;;;;9.40;2.25;;;;;9.50;94247.00;;;;7391670;19;20136;-73
2022/10/25 05:57:31;;;;;;;8.10;1.85;;;;;9.40;94242.00;;;;7390659;19;20153;-74
2022/10/25 06:00:06;;;;;;;6.90;2.00;;;;;9.30;94237.00;;;;7388378;19;20152;-76
2022/10/25 06:02:41;;;;;;;6.50;2.13;;;;;9.10;94250.00;;;;7388373;19;20141;-75
2022/10/25 06:05:16;;;;;;;4.30;1.40;;;;;9.10;94247.00;;;;7390626;19;20137;-75
2022/10/25 06:07:44;;;;;;;10.20;2.15;;;;;9.20;94239.00;;;;7392086;19;20137;-74
2022/10/25 06:10:11;;;;;;;7.68;2.08;;;;;9.10;94244.00;;;;7391845;19;20129;-75
2022/10/25 06:12:46;;;;;;;8.10;2.30;;;;;9.20;94244.00;;;;7391510;19;20601;-75
2022/10/25 06:15:14;;;;;;;13.02;2.00;;;;;9.30;94245.00;;;;7391368;19;20133;-74
2022/10/25 06:17:42;;;;;;;4.68;1.90;;;;;9.60;94247.00;;;;7393201;19;21042;-75
2022/10/25 06:20:16;;;;;;;5.95;1.70;;;;;9.80;94248.00;;;;7396156;19;20148;-75
2022/10/25 06:22:43;;;;;;;12.98;2.17;;;;;9.90;94249.00;;;;7396080;19;20596;-75
2022/10/25 06:25:13;;;;;;;6.50;2.10;;;;;10.10;94249.00;;;;7397460;19;20145;-76
2022/10/25 06:27:46;;;;;;;7.93;2.38;;;;;10.30;94260.00;;;;7397004;19;20193;-77
2022/10/25 06:30:14;;;;;;;4.95;2.10;;;;;10.30;94255.00;;;;7395666;19;20147;-74
2022/10/25 06:32:42;;;;;;;9.55;2.10;;;;;10.30;94264.00;;;;7395413;19;20128;-75
2022/10/25 06:35:16;;;;;;;9.52;2.40;;;;;10.40;94267.00;;;;7395543;19;20619;-77
2022/10/25 06:37:44;;;;;;;11.90;2.60;;;;;10.50;94269.00;;;;7397227;19;20152;-75
2022/10/25 06:40:12;;;;;;;8.27;3.10;;;;;10.80;94274.00;;;;7396469;19;20133;-75
2022/10/25 06:42:45;;;;;;;12.13;2.88;;;;;10.90;94271.00;;;;7394148;19;20189;-76
2022/10/25 06:45:14;;;;;;;10.73;3.53;;;;;11.00;94280.00;;;;7397787;19;20534;-75
2022/10/25 06:47:45;;;;;;;10.52;3.65;;;;;11.10;94278.00;;;;7397137;19;20137;-74
2022/10/25 06:50:20;;;;;;;10.70;3.67;;;;;11.00;94289.00;;;;7394324;19;20616;-74
2022/10/25 06:52:47;;;;;;;7.45;3.55;;;;;11.00;94292.00;;;;7392364;19;20244;-76
2022/10/25 06:55:15;;;;;;;7.18;4.30;;;;;10.90;94297.00;;;;7396367;19;20160;-75
2022/10/25 06:57:50;;;;;;;8.77;3.55;;;;;11.00;94300.00;;;;7394399;19;20181;-76
2022/10/25 07:00:18;;;;;;;6.43;2.65;;;;;11.20;94295.00;;;;7394668;19;20468;-75
2022/10/25 07:03:04;;;;;;;5.20;2.55;;;;;11.50;94296.00;;;;7380362;19;20144;-76
2022/10/25 07:05:44;;;;;;;9.55;3.42;;;;;11.60;94306.00;;;;7385297;19;20178;-76
2022/10/25 07:08:17;;;;;;;7.75;2.80;;;;;11.80;94297.00;;;;7393772;19;20216;-76
2022/10/25 07:10:55;;;;;;;5.82;2.58;;;;;11.80;94302.00;;;;7383387;19;20159;-76
2022/10/25 07:13:23;;;;;;;5.07;2.63;;;;;11.90;94305.00;;;;7395535;19;20805;-74
2022/10/25 07:16:02;;;;;;;6.38;2.10;;;;;11.90;94310.00;;;;7393186;19;20635;-75
2022/10/25 07:18:32;;;;;;;6.43;2.85;;;;;12.20;94322.00;;;;7395426;19;20626;-74
2022/10/25 07:21:11;;;;;;;7.80;3.28;;;;;12.40;94317.00;;;;7393941;19;20160;-76
2022/10/25 07:23:43;;;;;;;7.43;1.95;;;;;12.70;94323.00;;;;7394886;19;20144;-75
2022/10/25 07:26:28;;;;;;;9.60;2.15;;;;;12.70;94318.00;;;;7394830;19;20501;-76
2022/10/25 07:28:59;;;;;;;5.47;1.70;;;;;12.90;94323.00;;;;7394290;19;20156;-75
2022/10/25 07:31:35;;;;;;;4.15;2.10;;;;;13.20;94315.00;;;;7392378;19;20148;-74
2022/10/25 07:34:04;;;;;;;2.72;1.70;;;;;13.00;94320.00;;;;7395166;19;20153;-74
2022/10/25 07:36:32;;;;;;;4.35;1.88;;;;;13.00;94328.00;;;;7391516;19;20166;-76
2022/10/25 07:39:07;;;;;;;8.57;1.95;;;;;12.90;94335.00;;;;7394164;19;20531;-75
2022/10/25 07:41:35;;;;;;;9.45;2.10;;;;;13.00;94331.00;;;;7393524;19;20476;-75
2022/10/25 07:44:03;;;;;;;3.60;1.63;;;;;12.80;94330.00;;;;7393929;19;20673;-75
2022/10/25 07:46:43;;;;;;;3.30;1.33;;;;;13.20;94321.00;;;;7392651;19;20152;-76
2022/10/25 07:49:11;;;;;;;4.72;1.75;;;;;13.30;94325.00;;;;7394188;19;20632;-75
2022/10/25 07:51:45;;;;;;;3.55;1.00;;;;;13.80;94320.00;;;;7392830;19;20179;-75
2022/10/25 07:54:13;;;;;;;4.88;1.45;;;;;13.90;94318.00;;;;7390311;19;20628;-75
2022/10/25 07:56:42;;;;;;;7.00;1.65;;;;;14.50;94318.00;;;;7394841;19;20165;-75
2022/10/25 07:59:17;;;;;;;5.45;1.50;;;;;14.30;94318.00;;;;7393675;19;20160;-74
2022/10/25 08:01:59;;;;;;;7.28;1.83;;;;;14.20;94326.00;;;;7390576;19;20773;-74
2022/10/25 08:04:33;;;;;;;2.60;1.35;;;;;14.40;94323.00;;;;7394048;19;20880;-76
2022/10/25 08:07:02;;;;;;;3.53;1.40;;;;;14.30;94317.00;;;;7391727;19;20168;-73
2022/10/25 08:09:29;;;;;;;3.90;1.25;;;;;14.90;94310.00;;;;7394656;19;20193;-72
2022/10/25 08:12:05;;;;;;;7.43;1.40;;;;;15.00;94313.00;;;;7391540;19;20537;-73
2022/10/25 08:14:33;;;;;;;3.95;1.27;;;;;15.10;94306.00;;;;7391394;19;20152;-74
2022/10/25 08:17:09;;;;;;;6.82;1.30;;;;;15.50;94306.00;;;;7394640;19;20148;-72
2022/10/25 08:19:44;;;;;;;9.85;1.20;;;;;15.50;94304.00;;;;7392767;19;20131;-73
2022/10/25 08:22:24;;;;;;;6.55;1.30;;;;;15.80;94309.00;;;;7391112;19;20133;-71
2022/10/25 08:25:04;;;;;;;4.43;1.20;;;;;16.10;94296.00;;;;7393778;19;20146;-73
2022/10/25 08:27:32;;;;;;;4.95;1.42;;;;;16.40;94302.00;;;;7393803;19;20133;-72
2022/10/25 08:29:59;;;;;;;5.93;1.33;;;;;16.50;94304.00;;;;7391936;19;20141;-73
2022/10/25 08:32:37;;;;;;;3.03;1.10;;;;;16.40;94298.00;;;;7389797;19;20167;-72
2022/10/25 08:35:10;;;;;;;6.53;1.17;;;;;16.50;94294.00;;;;7392919;19;20157;-73
2022/10/25 08:37:44;;;;;;;4.22;1.15;;;;;16.60;94298.00;;;;7393087;19;20611;-72
2022/10/25 08:40:19;;;;;;;6.28;1.30;;;;;16.80;94297.00;;;;7389827;19;20671;-73
2022/10/25 08:43:12;;;;;;;2.88;0.90;;;;;17.00;94296.00;;;;7390635;19;20528;-72
2022/10/25 08:45:53;;;;;;;4.78;1.30;;;;;17.30;94293.00;;;;7392232;19;20545;-73
2022/10/25 08:48:40;;;;;;;4.03;1.30;;;;;17.40;94297.00;;;;7389994;19;20635;-74
2022/10/25 08:51:38;;;;;;;2.85;1.10;;;;;17.40;94298.00;;;;7389359;19;20153;-72
2022/10/25 08:54:32;;;;;;;4.85;1.13;;;;;17.20;94301.00;;;;7390944;19;20132;-72
2022/10/25 08:57:17;;;;;;;3.70;1.30;;;;;17.70;94296.00;;;;7389703;19;20638;-73
2022/10/25 09:00:09;;;;;;;4.25;1.30;;;;;18.10;94293.00;;;;7392376;19;20164;-73
2022/10/25 09:02:51;;;;;;;6.47;1.30;;;;;18.10;94296.00;;;;7390736;19;20833;-73
2022/10/25 09:05:35;;;;;;;4.88;1.08;;;;;18.70;94299.00;;;;7390994;19;20133;-72
2022/10/25 09:08:14;;;;;;;5.55;1.30;;;;;18.60;94302.00;;;;7387262;19;20132;-72
2022/10/25 09:10:59;;;;;;;5.63;1.50;;;;;18.90;94305.00;;;;7390318;19;20146;-73
2022/10/25 09:13:48;;;;;;;3.78;1.10;;;;;19.30;94308.00;;;;7390354;19;20149;-73
2022/10/25 09:16:40;;;;;;;5.07;1.48;;;;;19.50;94304.00;;;;7391451;19;20502;-74
2022/10/25 09:19:32;;;;;;;2.80;1.00;;;;;19.80;94315.00;;;;7390165;19;20145;-73
2022/10/25 09:22:28;;;;;;;6.22;1.42;;;;;19.30;94309.00;;;;7391741;19;20158;-72
2022/10/25 09:25:24;;;;;;;4.22;1.30;;;;;18.30;94310.00;;;;7391096;19;20133;-73
2022/10/25 09:28:02;;;;;;;7.57;1.35;;;;;18.40;94323.00;;;;7389565;19;20475;-73
2022/10/25 09:30:36;;;;;;;3.47;1.10;;;;;18.70;94314.00;;;;7391661;19;20129;-75
2022/10/25 09:33:17;;;;;;;4.85;1.30;;;;;19.00;94331.00;;;;7392754;19;20555;-74
2022/10/25 09:35:47;;;;;;;1.77;1.00;;;;;19.50;94325.00;;;;7391295;19;20829;-73
2022/10/25 09:38:37;;;;;;;3.00;1.30;;;;;19.90;94321.00;;;;7388852;19;20160;-73
2022/10/25 09:41:20;;;;;;;2.35;0.93;;;;;19.70;94324.00;;;;7391574;19;20133;-73
2022/10/25 09:43:58;;;;;;;4.80;1.42;;;;;19.70;94323.00;;;;7390079;19;20556;-73
2022/10/25 09:46:34;;;;;;;2.05;1.10;;;;;19.80;94314.00;;;;7388354;19;20141;-73
2022/10/25 09:49:36;;;;;;;2.97;1.17;;;;;19.30;94313.00;;;;7392780;19;20125;-73
2022/10/25 09:52:46;;;;;;;2.33;0.95;;;;;18.90;94325.00;;;;7393911;19;20619;-74
2022/10/25 09:55:34;;;;;;;2.67;1.10;;;;;19.60;94328.00;;;;7397541;19;20145;-74
2022/10/25 09:58:02;;;;;;;6.43;1.17;;;;;20.10;94324.00;;;;7400225;19;20160;-72
2022/10/25 10:00:39;;;;;;;2.20;0.95;;;;;20.60;94323.00;;;;7397708;19;20504;-73
2022/10/25 10:03:19;;;;;;;8.77;1.25;;;;;21.00;94324.00;;;;7394271;19;20527;-73
2022/10/25 10:05:59;;;;;;;4.25;0.95;;;;;21.20;94329.00;;;;7395526;19;20616;-73
2022/10/25 10:08:30;;;;;;;2.92;1.05;;;;;21.20;94324.00;;;;7394759;19;20157;-73
2022/10/25 10:11:05;;;;;;;1.90;1.00;;;;;21.30;94329.00;;;;7397307;19;20221;-74
2022/10/25 10:13:51;;;;;;;2.88;1.13;;;;;21.10;94321.00;;;;7399169;19;20113;-75
2022/10/25 10:16:38;;;;;;;8.90;1.30;;;;;20.50;94330.00;;;;7395137;19;20143;-73
2022/10/25 10:19:28;;;;;;;3.13;1.38;;;;;20.50;94324.00;;;;7396529;19;20156;-75
2022/10/25 10:22:08;;;;;;;3.00;1.10;;;;;21.30;94320.00;;;;7400254;19;20125;-73
2022/10/25 10:24:37;;;;;;;2.95;0.90;;;;;22.00;94331.00;;;;7393671;19;20741;-72
2022/10/25 10:27:20;;;;;;;2.80;1.15;;;;;20.10;94325.00;;;;7398009;19;20610;-73
2022/10/25 10:29:58;;;;;;;3.40;1.02;;;;;19.90;94322.00;;;;7397045;19;20611;-73
2022/10/25 10:32:36;;;;;;;3.25;1.08;;;;;19.70;94334.00;;;;7396599;19;20139;-73
2022/10/25 10:35:42;;;;;;;2.92;0.93;;;;;18.10;94337.00;;;;7397889;19;20137;-72
2022/10/25 10:38:25;;;;;;;2.15;0.93;;;;;17.30;94333.00;;;;7394570;19;20135;-72
2022/10/25 10:41:13;;;;;;;1.02;0.82;;;;;18.50;94328.00;;;;7395342;19;20179;-73
2022/10/25 10:43:47;;;;;;;2.97;1.02;;;;;18.20;94334.00;;;;7397546;19;20200;-72
2022/10/25 10:46:18;;;;;;;7.07;1.10;;;;;17.90;94342.00;;;;7394197;19;20140;-74
2022/10/25 10:48:54;;;;;;;2.67;1.05;;;;;18.90;94322.00;;;;7396739;19;20161;-73
2022/10/25 10:51:43;;;;;;;6.55;1.35;;;;;19.40;94313.00;;;;7394615;19;20168;-72
2022/10/25 10:54:23;;;;;;;4.80;1.13;;;;;19.30;94322.00;;;;7395373;19;20137;-71
2022/10/25 10:57:03;;;;;;;5.30;1.05;;;;;19.90;94305.00;;;;7396337;19;20128;-72
2022/10/25 10:59:51;;;;;;;3.05;0.90;;;;;20.50;94287.00;;;;7399610;19;20601;-73
2022/10/25 11:02:46;;;;;;;3.28;1.38;;;;;20.50;94311.00;;;;7395437;19;20502;-73
2022/10/25 11:05:20;;;;;;;2.42;1.00;;;;;21.80;94288.00;;;;7393997;19;20165;-73
2022/10/25 11:08:02;;;;;;;1.75;1.00;;;;;23.30;94282.00;;;;7397199;19;20128;-72
2022/10/25 11:10:32;;;;;;;3.53;1.15;;;;;24.10;94279.00;;;;7391825;19;20144;-74
2022/10/25 11:13:13;;;;;;;2.47;1.08;;;;;23.50;94283.00;;;;7393782;19;20133;-73
2022/10/25 11:16:01;;;;;;;2.85;0.82;;;;;24.20;94274.00;;;;7394852;19;20205;-73
2022/10/25 11:19:22;;;;;;;7.28;1.42;;;;;23.20;94288.00;;;;7391960;19;20152;-72
2022/10/25 11:22:24;;;;;;;1.63;0.88;;;;;22.70;94279.00;;;;7391821;19;20476;-72
2022/10/25 11:25:15;;;;;;;5.50;1.00;;;;;21.50;94283.00;;;;7392652;19;20161;-73
2022/10/25 11:27:49;;;;;;;2.00;0.80;;;;;21.80;94289.00;;;;7394398;19;20152;-74
2022/10/25 11:30:27;;;;;;;2.40;0.60;;;;;21.30;94283.00;;;;7394827;19;20164;-74
2022/10/25 11:33:20;;;;;;;3.15;1.02;;;;;21.30;94291.00;;;;7393952;19;20155;-73
2022/10/25 11:36:12;;;;;;;3.75;1.10;;;;;21.10;94289.00;;;;7392073;19;20129;-74
2022/10/25 11:39:24;;;;;;;0.82;0.63;;;;;20.00;94316.00;;;;7394364;19;20136;-73
2022/10/25 11:42:24;;;;;;;2.90;1.10;;;;;20.20;94294.00;;;;7389963;19;20620;-73
2022/10/25 11:45:17;;;;;;;3.60;0.93;;;;;21.10;94303.00;;;;7390360;19;20152;-74
2022/10/25 11:48:08;;;;;;;0.82;0.68;;;;;20.80;94301.00;;;;7391195;19;20151;-73
2022/10/25 11:50:48;;;;;;;1.20;0.75;;;;;20.30;94327.00;;;;7392761;19;20153;-72
2022/10/25 11:53:50;;;;;;;1.98;0.95;;;;;20.60;94306.00;;;;7394825;19;20124;-73
2022/10/25 11:56:23;;;;;;;1.73;0.75;;;;;20.90;94296.00;;;;7390663;19;20133;-74
2022/10/25 11:59:39;;;;;;;2.40;0.70;;;;;21.70;94323.00;;;;7395329;19;20128;-73
2022/10/25 12:02:28;;;;;;;2.10;0.77;;;;;20.10;94303.00;;;;7386632;19;20180;-74
2022/10/25 12:05:34;;;;;;;2.22;0.90;;;;;21.20;94300.00;;;;7389757;19;20160;-72
2022/10/25 12:08:35;;;;;;;2.60;1.13;;;;;21.60;94297.00;;;;7386934;19;20140;-73
2022/10/25 12:11:27;;;;;;;2.50;0.90;;;;;22.30;94292.00;;;;7389203;19;20157;-73
2022/10/25 12:13:59;;;;;;;3.85;0.90;;;;;22.80;94292.00;;;;7390483;19;20164;-74
2022/10/25 12:16:35;;;;;;;1.33;0.80;;;;;22.40;94310.00;;;;7388580;19;20163;-74
2022/10/25 12:19:27;;;;;;;4.22;0.95;;;;;23.30;94296.00;;;;7392433;19;20136;-73
2022/10/25 12:22:06;;;;;;;4.95;0.85;;;;;22.80;94296.00;;;;7395853;19;20129;-73
2022/10/25 12:24:59;;;;;;;3.53;1.30;;;;;23.60;94293.00;;;;7380531;19;20152;-74
2022/10/25 12:27:34;;;;;;;1.83;0.98;;;;;23.30;94292.00;;;;7391833;19;20584;-72
2022/10/25 12:30:06;;;;;;;2.25;1.00;;;;;23.70;94298.00;;;;7390067;19;20163;-76
2022/10/25 12:32:44;;;;;;;2.80;1.20;;;;;23.90;94296.00;;;;7394433;19;20192;-73
2022/10/25 12:35:29;;;;;;;3.60;1.10;;;;;22.80;94320.00;;;;7392905;19;20145;-72
2022/10/25 12:38:19;;;;;;;2.70;1.05;;;;;20.00;94322.00;;;;7393616;19;20129;-74
2022/10/25 12:40:50;;;;;;;6.00;1.38;;;;;19.10;94332.00;;;;7391107;19;20155;-73
2022/10/25 12:43:48;;;;;;;6.13;1.40;;;;;18.10;94327.00;;;;7387366;19;20635;-73
2022/10/25 12:46:45;;;;;;;3.22;1.10;;;;;17.70;94325.00;;;;7388925;19;20523;-73
2022/10/25 12:49:37;;;;;;;2.17;1.00;;;;;18.30;94300.00;;;;7389680;19;20136;-75
2022/10/25 12:52:24;;;;;;;4.95;1.20;;;;;19.00;94324.00;;;;7390130;19;20152;-73
2022/10/25 12:55:31;;;;;;;4.80;1.17;;;;;18.20;94331.00;;;;7392078;19;20153;-73
2022/10/25 12:58:11;;;;;;;3.65;1.02;;;;;17.20;94328.00;;;;7388241;19;20159;-72
2022/10/25 13:01:02;;;;;;;3.83;1.15;;;;;17.40;94309.00;;;;7389868;19;20622;-73
2022/10/25 13:04:00;;;;;;;2.08;1.00;;;;;17.50;94323.00;;;;7390466;19;20184;-74
2022/10/25 13:06:41;;;;;;;1.88;1.00;;;;;18.00;94308.00;;;;7388217;19;20151;-75
2022/10/25 13:09:15;;;;;;;2.72;1.00;;;;;18.90;94317.00;;;;7393578;19;20132;-74
2022/10/25 13:11:59;;;;;;;2.75;0.98;;;;;17.80;94315.00;;;;7391942;19;20133;-73
2022/10/25 13:14:53;;;;;;;3.45;1.00;;;;;17.70;94303.00;;;;7387472;19;20551;-74